Aegean Orion — SVA2487 — position and weather

sailwx.info

Track history (hours):
 
Tides and Currents Weather Stations Pressure Air Temp Water Temp Dewpoint Dewpoint Depression Visibility Wind Speed Wind Dir Waves Ship Positions

Aegean Orion

Last reported at 2014-Aug-01 15:33 UTC. Time now 2014-Aug-01 15:59 UTC.
Position N 37°56' E 023°37'.

Length 52 m; draft 2.4 m.

Type: Ship. MMSI: 239550200.

Date/timePositionNaut miles runAvg speedWind from/ knotsBaromVisibWave heightAir tempDewpointWater temp
2014-Aug-01 15:33N 37°56' E 023°37'2 2.0
2014-Aug-01 14:33N 37°57' E 023°34'0 0.0
2014-Aug-01 13:33N 37°57' E 023°34'0 0.0
2014-Aug-01 12:33N 37°57' E 023°34'0 0.0
2014-Aug-01 11:33N 37°57' E 023°34'0 0.0
2014-Aug-01 10:33N 37°57' E 023°34'0 0.0
2014-Aug-01 09:33N 37°57' E 023°34'2 1.6
2014-Aug-01 08:33N 37°58' E 023°36'0 0.0
2014-Aug-01 07:33N 37°58' E 023°36'0 0.0
2014-Aug-01 06:34N 37°58' E 023°36'0 0.0
2014-Aug-01 05:32N 37°58' E 023°36'6 0.4
2014-Jul-31 14:21N 38°02' E 023°32'1 1.2
2014-Jul-31 13:31N 38°02' E 023°31'0 0.1
2014-Jul-31 12:32N 38°02' E 023°31'0 0.0
2014-Jul-31 11:30N 38°02' E 023°31'0 0.0
2014-Jul-31 10:31N 38°02' E 023°31'2 2.4
2014-Jul-31 09:33N 38°00' E 023°32'6 5.5
2014-Jul-31 08:33N 37°56' E 023°37'0 0.0
2014-Jul-31 07:33N 37°56' E 023°37'1 0.5
2014-Jul-31 06:33N 37°56' E 023°37'5 5.4
2014-Jul-31 05:33N 38°01' E 023°32'2 1.5
2014-Jul-31 04:31N 38°02' E 023°32'0 0.0
2014-Jul-30 14:18N 38°02' E 023°32'1 1.4
2014-Jul-30 13:33N 38°02' E 023°31'0 0.1
2014-Jul-30 12:33N 38°02' E 023°31'0 0.0
2014-Jul-30 11:28N 38°02' E 023°31'0 0.0
2014-Jul-30 10:33N 38°02' E 023°31'5 5.4
2014-Jul-30 09:33N 37°57' E 023°34'4 3.6
2014-Jul-30 08:33N 37°57' E 023°38'0 0.0
2014-Jul-30 07:33N 37°57' E 023°38'0 0.0
2014-Jul-30 06:33N 37°57' E 023°38'1 0.8
2014-Jul-30 05:33N 37°56' E 023°37'5 5.5
2014-Jul-30 04:33N 38°00' E 023°33'2 0.2
2014-Jul-29 16:33N 38°02' E 023°31'1 0.6
2014-Jul-29 15:33N 38°02' E 023°31'0 0.0
2014-Jul-29 14:23N 38°02' E 023°31'0 0.0
2014-Jul-29 13:33N 38°02' E 023°31'0 0.0
2014-Jul-29 12:33N 38°02' E 023°31'0 0.5
2014-Jul-29 11:33N 38°02' E 023°31'0 0.0
2014-Jul-29 10:33N 38°02' E 023°31'0 0.2
2014-Jul-29 09:33N 38°02' E 023°31'3 3.4
2014-Jul-29 08:33N 37°58' E 023°33'4 4.2
2014-Jul-29 07:33N 37°56' E 023°38'0 0.0
2014-Jul-29 06:33N 37°56' E 023°38'0 0.0
2014-Jul-29 05:33N 37°56' E 023°38'5 4.6
2014-Jul-29 04:33N 37°59' E 023°33'3 0.3
2014-Jul-28 19:29N 38°02' E 023°32'0 0.3
2014-Jul-28 18:30N 38°02' E 023°32'1 0.8
2014-Jul-28 17:34N 38°02' E 023°31'0 0.0
2014-Jul-28 16:33N 38°02' E 023°31'0 0.0
2014-Jul-28 15:33N 38°02' E 023°31'0 0.0
2014-Jul-28 14:34N 38°02' E 023°31'1 0.9
2014-Jul-28 13:33N 38°01' E 023°31'0 0.2
2014-Jul-28 12:33N 38°02' E 023°31'0 0.0
2014-Jul-28 11:33N 38°02' E 023°31'0 0.0
2014-Jul-28 10:29N 38°02' E 023°31'0 0.1
2014-Jul-28 09:33N 38°02' E 023°31'7 7.1
2014-Jul-28 08:34N 37°56' E 023°38'0 0.1
2014-Jul-28 07:34N 37°56' E 023°38'0 0.0
2014-Jul-28 06:34N 37°56' E 023°38'0 0.4
2014-Jul-28 05:34N 37°56' E 023°37'7 6.5
2014-Jul-28 04:28N 38°02' E 023°32'0 0.0
2014-Jul-27 16:17N 38°02' E 023°32'0 0.0
2014-Jul-26 18:30N 38°02' E 023°32'6 6.5
2014-Jul-26 17:33N 37°57' E 023°35'2 2.0
2014-Jul-26 16:34N 37°57' E 023°38'0 0.0
2014-Jul-26 15:34N 37°57' E 023°38'2 1.5
2014-Jul-26 14:34N 37°57' E 023°36'7 6.4
2014-Jul-26 13:33N 38°02' E 023°32'0 0.0
2014-Jul-26 09:14N 38°02' E 023°32'0 0.0
2014-Jul-25 11:33N 38°02' E 023°32'0 0.0
2014-Jul-25 10:32N 38°02' E 023°32'0 0.0
2014-Jul-24 15:19N 38°02' E 023°32'3 3.8
2014-Jul-24 14:32N 37°59' E 023°33'5 5.3
2014-Jul-24 13:33N 37°57' E 023°38'0 0.0
2014-Jul-24 12:33N 37°57' E 023°38'1 1.4
2014-Jul-24 11:33N 37°56' E 023°37'1 0.5
2014-Jul-24 10:27N 37°56' E 023°37'0 0.0
2014-Jul-24 09:34N 37°56' E 023°37'0 0.0
2014-Jul-24 08:33N 37°56' E 023°37'6 6.0
2014-Jul-24 07:33N 37°53' E 023°31'6 4.8
2014-Jul-24 06:20N 37°56' E 023°24'5 6.2
2014-Jul-24 05:28N 38°01' E 023°28'3 0.2
2014-Jul-23 12:28N 38°02' E 023°32'1 1.1
2014-Jul-23 11:33N 38°02' E 023°31'0 0.0
2014-Jul-23 09:31N 38°02' E 023°31'0 0.0
2014-Jul-23 08:32N 38°02' E 023°31'1 0.3
2014-Jul-23 06:26N 38°02' E 023°31'0 0.1
2014-Jul-23 05:33N 38°02' E 023°31'  
Track history (hours):
 
Tides and Currents Weather Stations Pressure Air Temp Water Temp Dewpoint Dewpoint Depression Visibility Wind Speed Wind Dir Waves Ship Positions

Aegean Orion

Last reported at 2014-Aug-01 15:33 UTC. Time now 2014-Aug-01 15:59 UTC.
Position N 37°56' E 023°37'.

Length 52 m; draft 2.4 m.

Type: Ship. MMSI: 239550200.

Date/timePositionNaut miles runAvg speedWind from/ knotsBaromVisibWave heightAir tempDewpointWater temp
2014-Aug-01 15:33N 37°56' E 023°37'2 2.0
2014-Aug-01 14:33N 37°57' E 023°34'0 0.0
2014-Aug-01 13:33N 37°57' E 023°34'0 0.0
2014-Aug-01 12:33N 37°57' E 023°34'0 0.0
2014-Aug-01 11:33N 37°57' E 023°34'0 0.0
2014-Aug-01 10:33N 37°57' E 023°34'0 0.0
2014-Aug-01 09:33N 37°57' E 023°34'2 1.6
2014-Aug-01 08:33N 37°58' E 023°36'0 0.0
2014-Aug-01 07:33N 37°58' E 023°36'0 0.0
2014-Aug-01 06:34N 37°58' E 023°36'0 0.0
2014-Aug-01 05:32N 37°58' E 023°36'6 0.4
2014-Jul-31 14:21N 38°02' E 023°32'1 1.2
2014-Jul-31 13:31N 38°02' E 023°31'0 0.1
2014-Jul-31 12:32N 38°02' E 023°31'0 0.0
2014-Jul-31 11:30N 38°02' E 023°31'0 0.0
2014-Jul-31 10:31N 38°02' E 023°31'2 2.4
2014-Jul-31 09:33N 38°00' E 023°32'6 5.5
2014-Jul-31 08:33N 37°56' E 023°37'0 0.0
2014-Jul-31 07:33N 37°56' E 023°37'1 0.5
2014-Jul-31 06:33N 37°56' E 023°37'5 5.4
2014-Jul-31 05:33N 38°01' E 023°32'2 1.5
2014-Jul-31 04:31N 38°02' E 023°32'0 0.0
2014-Jul-30 14:18N 38°02' E 023°32'1 1.4
2014-Jul-30 13:33N 38°02' E 023°31'0 0.1
2014-Jul-30 12:33N 38°02' E 023°31'0 0.0
2014-Jul-30 11:28N 38°02' E 023°31'0 0.0
2014-Jul-30 10:33N 38°02' E 023°31'5 5.4
2014-Jul-30 09:33N 37°57' E 023°34'4 3.6
2014-Jul-30 08:33N 37°57' E 023°38'0 0.0
2014-Jul-30 07:33N 37°57' E 023°38'0 0.0
2014-Jul-30 06:33N 37°57' E 023°38'1 0.8
2014-Jul-30 05:33N 37°56' E 023°37'5 5.5
2014-Jul-30 04:33N 38°00' E 023°33'2 0.2
2014-Jul-29 16:33N 38°02' E 023°31'1 0.6
2014-Jul-29 15:33N 38°02' E 023°31'0 0.0
2014-Jul-29 14:23N 38°02' E 023°31'0 0.0
2014-Jul-29 13:33N 38°02' E 023°31'0 0.0
2014-Jul-29 12:33N 38°02' E 023°31'0 0.5
2014-Jul-29 11:33N 38°02' E 023°31'0 0.0
2014-Jul-29 10:33N 38°02' E 023°31'0 0.2
2014-Jul-29 09:33N 38°02' E 023°31'3 3.4
2014-Jul-29 08:33N 37°58' E 023°33'4 4.2
2014-Jul-29 07:33N 37°56' E 023°38'0 0.0
2014-Jul-29 06:33N 37°56' E 023°38'0 0.0
2014-Jul-29 05:33N 37°56' E 023°38'5 4.6
2014-Jul-29 04:33N 37°59' E 023°33'3 0.3
2014-Jul-28 19:29N 38°02' E 023°32'0 0.3
2014-Jul-28 18:30N 38°02' E 023°32'1 0.8
2014-Jul-28 17:34N 38°02' E 023°31'0 0.0
2014-Jul-28 16:33N 38°02' E 023°31'0 0.0
2014-Jul-28 15:33N 38°02' E 023°31'0 0.0
2014-Jul-28 14:34N 38°02' E 023°31'1 0.9
2014-Jul-28 13:33N 38°01' E 023°31'0 0.2
2014-Jul-28 12:33N 38°02' E 023°31'0 0.0
2014-Jul-28 11:33N 38°02' E 023°31'0 0.0
2014-Jul-28 10:29N 38°02' E 023°31'0 0.1
2014-Jul-28 09:33N 38°02' E 023°31'7 7.1
2014-Jul-28 08:34N 37°56' E 023°38'0 0.1
2014-Jul-28 07:34N 37°56' E 023°38'0 0.0
2014-Jul-28 06:34N 37°56' E 023°38'0 0.4
2014-Jul-28 05:34N 37°56' E 023°37'7 6.5
2014-Jul-28 04:28N 38°02' E 023°32'0 0.0
2014-Jul-27 16:17N 38°02' E 023°32'0 0.0
2014-Jul-26 18:30N 38°02' E 023°32'6 6.5
2014-Jul-26 17:33N 37°57' E 023°35'2 2.0
2014-Jul-26 16:34N 37°57' E 023°38'0 0.0
2014-Jul-26 15:34N 37°57' E 023°38'2 1.5
2014-Jul-26 14:34N 37°57' E 023°36'7 6.4
2014-Jul-26 13:33N 38°02' E 023°32'0 0.0
2014-Jul-26 09:14N 38°02' E 023°32'0 0.0
2014-Jul-25 11:33N 38°02' E 023°32'0 0.0
2014-Jul-25 10:32N 38°02' E 023°32'0 0.0
2014-Jul-24 15:19N 38°02' E 023°32'3 3.8
2014-Jul-24 14:32N 37°59' E 023°33'5 5.3
2014-Jul-24 13:33N 37°57' E 023°38'0 0.0
2014-Jul-24 12:33N 37°57' E 023°38'1 1.4
2014-Jul-24 11:33N 37°56' E 023°37'1 0.5
2014-Jul-24 10:27N 37°56' E 023°37'0 0.0
2014-Jul-24 09:34N 37°56' E 023°37'0 0.0
2014-Jul-24 08:33N 37°56' E 023°37'6 6.0
2014-Jul-24 07:33N 37°53' E 023°31'6 4.8
2014-Jul-24 06:20N 37°56' E 023°24'5 6.2
2014-Jul-24 05:28N 38°01' E 023°28'3 0.2
2014-Jul-23 12:28N 38°02' E 023°32'1 1.1
2014-Jul-23 11:33N 38°02' E 023°31'0 0.0
2014-Jul-23 09:31N 38°02' E 023°31'0 0.0
2014-Jul-23 08:32N 38°02' E 023°31'1 0.3
2014-Jul-23 06:26N 38°02' E 023°31'0 0.1
2014-Jul-23 05:33N 38°02' E 023°31'  

Dump ship's entire track history